sensor_id;sensor_type;location;lat;lon;timestamp;pressure;altitude;pressure_sealevel;temperature;humidity
63111;BME280;49201;53.426;10.300;2023-03-22T00:00:03;101007.94;;;8.73;100.00
63111;BME280;49201;53.426;10.300;2023-03-22T00:02:30;101007.00;;;8.71;100.00
63111;BME280;49201;53.426;10.300;2023-03-22T00:04:57;101004.38;;;8.68;100.00
63111;BME280;49201;53.426;10.300;2023-03-22T00:07:22;101005.00;;;8.61;100.00
63111;BME280;49201;53.426;10.300;2023-03-22T00:09:48;101004.94;;;8.58;100.00
63111;BME280;49201;53.426;10.300;2023-03-22T00:12:13;101000.59;;;8.56;100.00
63111;BME280;49201;53.426;10.300;2023-03-22T00:14:39;101001.34;;;8.53;100.00
63111;BME280;49201;53.426;10.300;2023-03-22T00:17:05;100997.00;;;8.49;100.00
63111;BME280;49201;53.426;10.300;2023-03-22T00:19:30;100997.75;;;8.45;100.00
63111;BME280;49201;53.426;10.300;2023-03-22T00:21:58;101000.97;;;8.40;100.00
63111;BME280;49201;53.426;10.300;2023-03-22T00:24:25;100986.38;;;8.36;100.00
63111;BME280;49201;53.426;10.300;2023-03-22T00:26:50;100982.06;;;8.33;100.00
63111;BME280;49201;53.426;10.300;2023-03-22T00:29:16;100992.97;;;8.29;100.00
63111;BME280;49201;53.426;10.300;2023-03-22T00:31:41;100981.81;;;8.26;100.00
63111;BME280;49201;53.426;10.300;2023-03-22T00:34:07;100986.03;;;8.25;100.00
63111;BME280;49201;53.426;10.300;2023-03-22T00:36:32;100974.94;;;8.23;100.00
63111;BME280;49201;53.426;10.300;2023-03-22T00:38:58;100974.88;;;8.22;100.00
63111;BME280;49201;53.426;10.300;2023-03-22T00:41:23;100973.03;;;8.18;100.00
63111;BME280;49201;53.426;10.300;2023-03-22T00:43:49;100971.31;;;8.17;100.00
63111;BME280;49201;53.426;10.300;2023-03-22T00:46:17;100956.00;;;8.17;100.00
63111;BME280;49201;53.426;10.300;2023-03-22T00:48:43;100961.03;;;8.15;100.00
63111;BME280;49201;53.426;10.300;2023-03-22T00:51:09;100961.94;;;8.16;100.00
63111;BME280;49201;53.426;10.300;2023-03-22T00:53:36;100957.53;;;8.12;100.00
63111;BME280;49201;53.426;10.300;2023-03-22T00:56:06;100960.22;;;8.16;100.00
63111;BME280;49201;53.426;10.300;2023-03-22T00:58:42;100969.66;;;8.19;100.00
63111;BME280;49201;53.426;10.300;2023-03-22T01:01:08;100968.91;;;8.21;100.00
63111;BME280;49201;53.426;10.300;2023-03-22T01:03:33;100960.50;;;8.24;100.00
63111;BME280;49201;53.426;10.300;2023-03-22T01:05:59;100963.19;;;8.28;100.00
63111;BME280;49201;53.426;10.300;2023-03-22T01:08:25;100961.38;;;8.24;100.00
63111;BME280;49201;53.426;10.300;2023-03-22T01:10:57;100961.41;;;8.26;100.00
63111;BME280;49201;53.426;10.300;2023-03-22T01:13:22;100952.88;;;8.25;100.00
63111;BME280;49201;53.426;10.300;2023-03-22T01:15:51;100948.78;;;8.30;100.00
63111;BME280;49201;53.426;10.300;2023-03-22T01:18:17;100952.25;;;8.32;100.00
63111;BME280;49201;53.426;10.300;2023-03-22T01:20:43;100945.50;;;8.34;100.00
63111;BME280;49201;53.426;10.300;2023-03-22T01:23:08;100941.34;;;8.36;100.00
63111;BME280;49201;53.426;10.300;2023-03-22T01:25:34;100940.50;;;8.37;100.00
63111;BME280;49201;53.426;10.300;2023-03-22T01:27:59;100939.84;;;8.44;100.00
63111;BME280;49201;53.426;10.300;2023-03-22T01:30:27;100931.34;;;8.44;100.00
63111;BME280;49201;53.426;10.300;2023-03-22T01:32:53;100930.63;;;8.48;100.00
63111;BME280;49201;53.426;10.300;2023-03-22T01:35:18;100943.38;;;8.48;100.00
63111;BME280;49201;53.426;10.300;2023-03-22T01:37:44;100929.91;;;8.52;100.00
63111;BME280;49201;53.426;10.300;2023-03-22T01:40:13;100920.47;;;8.51;100.00
63111;BME280;49201;53.426;10.300;2023-03-22T01:42:39;100917.31;;;8.58;100.00
63111;BME280;49201;53.426;10.300;2023-03-22T01:47:56;100905.44;;;8.60;100.00
63111;BME280;49201;53.426;10.300;2023-03-22T01:50:23;100905.47;;;8.61;100.00
63111;BME280;49201;53.426;10.300;2023-03-22T01:52:50;100895.31;;;8.63;100.00
63111;BME280;49201;53.426;10.300;2023-03-22T01:55:24;100897.00;;;8.62;100.00
63111;BME280;49201;53.426;10.300;2023-03-22T01:58:14;100893.72;;;8.66;100.00
63111;BME280;49201;53.426;10.300;2023-03-22T02:00:49;100890.41;;;8.70;100.00
63111;BME280;49201;53.426;10.300;2023-03-22T02:06:24;100885.41;;;8.73;100.00
63111;BME280;49201;53.426;10.300;2023-03-22T02:09:00;100881.19;;;8.75;100.00
63111;BME280;49201;53.426;10.300;2023-03-22T02:11:31;100876.13;;;8.77;100.00
63111;BME280;49201;53.426;10.300;2023-03-22T02:24:53;100860.31;;;8.90;100.00
63111;BME280;49201;53.426;10.300;2023-03-22T02:33:28;100853.66;;;8.95;100.00
63111;BME280;49201;53.426;10.300;2023-03-22T02:41:23;100858.78;;;8.96;100.00
63111;BME280;49201;53.426;10.300;2023-03-22T02:46:42;100848.59;;;8.96;100.00
63111;BME280;49201;53.426;10.300;2023-03-22T02:49:24;100849.38;;;8.94;100.00
63111;BME280;49201;53.426;10.300;2023-03-22T02:54:50;100844.25;;;8.94;100.00
63111;BME280;49201;53.426;10.300;2023-03-22T02:57:24;100851.88;;;8.92;100.00
63111;BME280;49201;53.426;10.300;2023-03-22T02:59:55;100845.91;;;8.92;100.00
63111;BME280;49201;53.426;10.300;2023-03-22T03:02:22;100844.25;;;8.94;100.00
63111;BME280;49201;53.426;10.300;2023-03-22T03:04:49;100844.31;;;8.95;100.00
63111;BME280;49201;53.426;10.300;2023-03-22T03:07:20;100837.41;;;8.93;100.00
63111;BME280;49201;53.426;10.300;2023-03-22T03:09:47;100838.31;;;8.95;100.00
63111;BME280;49201;53.426;10.300;2023-03-22T03:12:24;100830.66;;;8.95;100.00
63111;BME280;49201;53.426;10.300;2023-03-22T03:14:52;100832.44;;;8.97;100.00
63111;BME280;49201;53.426;10.300;2023-03-22T03:31:26;100822.34;;;9.03;100.00
63111;BME280;49201;53.426;10.300;2023-03-22T03:36:33;100825.84;;;9.05;100.00
63111;BME280;49201;53.426;10.300;2023-03-22T03:39:05;100814.75;;;9.05;100.00
63111;BME280;49201;53.426;10.300;2023-03-22T03:41:33;100814.75;;;9.05;100.00
63111;BME280;49201;53.426;10.300;2023-03-22T03:43:59;100819.84;;;9.05;100.00
63111;BME280;49201;53.426;10.300;2023-03-22T03:46:25;100815.53;;;9.02;100.00
63111;BME280;49201;53.426;10.300;2023-03-22T03:48:54;100807.09;;;9.05;100.00
63111;BME280;49201;53.426;10.300;2023-03-22T03:51:21;100807.88;;;9.02;100.00
63111;BME280;49201;53.426;10.300;2023-03-22T03:53:47;100813.84;;;9.03;100.00
63111;BME280;49201;53.426;10.300;2023-03-22T03:56:12;100808.75;;;9.03;100.00
63111;BME280;49201;53.426;10.300;2023-03-22T03:58:43;100816.38;;;9.01;100.00
63111;BME280;49201;53.426;10.300;2023-03-22T04:01:08;100816.38;;;9.01;100.00
63111;BME280;49201;53.426;10.300;2023-03-22T04:03:33;100807.81;;;9.01;100.00
63111;BME280;49201;53.426;10.300;2023-03-22T04:06:11;100809.59;;;9.03;100.00
63111;BME280;49201;53.426;10.300;2023-03-22T04:08:40;100817.22;;;9.02;100.00
63111;BME280;49201;53.426;10.300;2023-03-22T04:11:06;100814.66;;;9.02;100.00
63111;BME280;49201;53.426;10.300;2023-03-22T04:13:32;100810.41;;;9.02;100.00
63111;BME280;49201;53.426;10.300;2023-03-22T04:16:01;100812.97;;;9.02;100.00
63111;BME280;49201;53.426;10.300;2023-03-22T04:18:30;100806.19;;;9.04;100.00
63111;BME280;49201;53.426;10.300;2023-03-22T04:20:59;100807.13;;;9.06;100.00
63111;BME280;49201;53.426;10.300;2023-03-22T04:23:27;100791.78;;;9.06;100.00
63111;BME280;49201;53.426;10.300;2023-03-22T04:25:53;100796.00;;;9.04;100.00
63111;BME280;49201;53.426;10.300;2023-03-22T04:28:31;100790.81;;;9.01;100.00
63111;BME280;49201;53.426;10.300;2023-03-22T04:30:58;100795.16;;;9.04;100.00
63111;BME280;49201;53.426;10.300;2023-03-22T04:34:02;100788.31;;;9.03;100.00
63111;BME280;49201;53.426;10.300;2023-03-22T04:36:42;100793.38;;;9.01;100.00
63111;BME280;49201;53.426;10.300;2023-03-22T04:39:19;100790.88;;;9.03;100.00
63111;BME280;49201;53.426;10.300;2023-03-22T04:41:54;100793.44;;;9.04;100.00
63111;BME280;49201;53.426;10.300;2023-03-22T04:44:19;100790.03;;;9.04;100.00
63111;BME280;49201;53.426;10.300;2023-03-22T04:46:48;100789.19;;;9.05;100.00
63111;BME280;49201;53.426;10.300;2023-03-22T04:49:14;100786.66;;;9.05;100.00
63111;BME280;49201;53.426;10.300;2023-03-22T04:51:41;100781.59;;;9.06;100.00
63111;BME280;49201;53.426;10.300;2023-03-22T04:54:22;100782.47;;;9.07;100.00
63111;BME280;49201;53.426;10.300;2023-03-22T04:56:48;100785.03;;;9.08;100.00
63111;BME280;49201;53.426;10.300;2023-03-22T04:59:15;100778.28;;;9.10;100.00
63111;BME280;49201;53.426;10.300;2023-03-22T05:01:49;100777.41;;;9.10;100.00
63111;BME280;49201;53.426;10.300;2023-03-22T05:04:19;100776.56;;;9.09;100.00
63111;BME280;49201;53.426;10.300;2023-03-22T05:06:46;100783.31;;;9.07;100.00
63111;BME280;49201;53.426;10.300;2023-03-22T05:09:21;100777.34;;;9.07;100.00
63111;BME280;49201;53.426;10.300;2023-03-22T05:11:48;100773.84;;;9.03;100.00
63111;BME280;49201;53.426;10.300;2023-03-22T05:14:24;100772.19;;;9.05;100.00
63111;BME280;49201;53.426;10.300;2023-03-22T05:16:50;100773.88;;;9.05;100.00
63111;BME280;49201;53.426;10.300;2023-03-22T05:19:15;100771.28;;;9.03;100.00
63111;BME280;49201;53.426;10.300;2023-03-22T05:21:45;100769.56;;;9.02;100.00
63111;BME280;49201;53.426;10.300;2023-03-22T05:24:11;100766.91;;;8.99;100.00
63111;BME280;49201;53.426;10.300;2023-03-22T05:26:38;100768.63;;;8.99;100.00
63111;BME280;49201;53.426;10.300;2023-03-22T05:29:08;100762.66;;;8.98;100.00
63111;BME280;49201;53.426;10.300;2023-03-22T05:32:04;100766.13;;;9.00;100.00
63111;BME280;49201;53.426;10.300;2023-03-22T05:34:30;100772.13;;;9.02;100.00
63111;BME280;49201;53.426;10.300;2023-03-22T05:37:03;100772.19;;;9.05;100.00
63111;BME280;49201;53.426;10.300;2023-03-22T05:39:36;100763.78;;;9.09;100.00
63111;BME280;49201;53.426;10.300;2023-03-22T05:42:02;100768.06;;;9.10;100.00
63111;BME280;49201;53.426;10.300;2023-03-22T05:44:28;100773.22;;;9.13;100.00
63111;BME280;49201;53.426;10.300;2023-03-22T05:47:03;100772.38;;;9.13;100.00
63111;BME280;49201;53.426;10.300;2023-03-22T05:49:37;100771.53;;;9.14;100.00
63111;BME280;49201;53.426;10.300;2023-03-22T05:52:03;100770.75;;;9.16;100.00
63111;BME280;49201;53.426;10.300;2023-03-22T05:54:45;100779.25;;;9.15;100.00
63111;BME280;49201;53.426;10.300;2023-03-22T05:57:10;100777.63;;;9.19;100.00
63111;BME280;49201;53.426;10.300;2023-03-22T05:59:36;100777.63;;;9.19;100.00
63111;BME280;49201;53.426;10.300;2023-03-22T06:02:02;100768.31;;;9.21;100.00
63111;BME280;49201;53.426;10.300;2023-03-22T06:04:29;100780.22;;;9.20;100.00
63111;BME280;49201;53.426;10.300;2023-03-22T06:07:06;100775.19;;;9.23;100.00
63111;BME280;49201;53.426;10.300;2023-03-22T06:09:39;100776.91;;;9.24;100.00
63111;BME280;49201;53.426;10.300;2023-03-22T06:12:07;100785.47;;;9.26;100.00
63111;BME280;49201;53.426;10.300;2023-03-22T06:14:34;100788.09;;;9.29;100.00
63111;BME280;49201;53.426;10.300;2023-03-22T06:17:13;100788.09;;;9.29;100.00
63111;BME280;49201;53.426;10.300;2023-03-22T06:19:39;100789.88;;;9.32;100.00
63111;BME280;49201;53.426;10.300;2023-03-22T06:22:05;100788.22;;;9.35;100.00
63111;BME280;49201;53.426;10.300;2023-03-22T06:24:34;100790.06;;;9.41;100.00
63111;BME280;49201;53.426;10.300;2023-03-22T06:27:00;100779.94;;;9.44;100.00
63111;BME280;49201;53.426;10.300;2023-03-22T06:29:26;100777.56;;;9.51;100.00
63111;BME280;49201;53.426;10.300;2023-03-22T06:31:54;100782.00;;;9.60;100.00
63111;BME280;49201;53.426;10.300;2023-03-22T06:34:20;100770.09;;;9.62;100.00
63111;BME280;49201;53.426;10.300;2023-03-22T06:36:46;100763.34;;;9.64;100.00
63111;BME280;49201;53.426;10.300;2023-03-22T06:39:16;100762.63;;;9.69;100.00
63111;BME280;49201;53.426;10.300;2023-03-22T06:41:43;100759.41;;;9.79;100.00
63111;BME280;49201;53.426;10.300;2023-03-22T06:44:09;100762.97;;;9.87;100.00
63111;BME280;49201;53.426;10.300;2023-03-22T06:46:50;100767.44;;;9.96;100.00
63111;BME280;49201;53.426;10.300;2023-03-22T06:49:34;100773.47;;;9.99;100.00
63111;BME280;49201;53.426;10.300;2023-03-22T06:52:00;100762.56;;;10.06;100.00
63111;BME280;49201;53.426;10.300;2023-03-22T06:54:26;100768.59;;;10.10;100.00
63111;BME280;49201;53.426;10.300;2023-03-22T06:56:52;100768.72;;;10.16;100.00
63111;BME280;49201;53.426;10.300;2023-03-22T06:59:17;100770.50;;;10.20;100.00
63111;BME280;49201;53.426;10.300;2023-03-22T07:01:43;100758.56;;;10.19;100.00
63111;BME280;49201;53.426;10.300;2023-03-22T07:04:10;100764.50;;;10.18;100.00
63111;BME280;49201;53.426;10.300;2023-03-22T07:06:36;100764.50;;;10.19;100.00
63111;BME280;49201;53.426;10.300;2023-03-22T07:09:02;100764.56;;;10.21;100.00
63111;BME280;49201;53.426;10.300;2023-03-22T07:11:31;100763.72;;;10.22;100.00
63111;BME280;49201;53.426;10.300;2023-03-22T07:13:59;100762.03;;;10.22;100.00
63111;BME280;49201;53.426;10.300;2023-03-22T07:16:30;100764.69;;;10.28;100.00
63111;BME280;49201;53.426;10.300;2023-03-22T07:18:58;100758.84;;;10.34;100.00
63111;BME280;49201;53.426;10.300;2023-03-22T07:21:24;100760.75;;;10.45;100.00
63111;BME280;49201;53.426;10.300;2023-03-22T07:23:54;100749.88;;;10.57;100.00
63111;BME280;49201;53.426;10.300;2023-03-22T07:26:24;100748.19;;;10.59;100.00
63111;BME280;49201;53.426;10.300;2023-03-22T07:28:52;100755.78;;;10.53;100.00
63111;BME280;49201;53.426;10.300;2023-03-22T07:31:21;100758.31;;;10.51;100.00
63111;BME280;49201;53.426;10.300;2023-03-22T07:34:10;100748.03;;;10.48;100.00
63111;BME280;49201;53.426;10.300;2023-03-22T07:36:55;100747.16;;;10.48;100.00
63111;BME280;49201;53.426;10.300;2023-03-22T07:39:21;100741.19;;;10.49;100.00
63111;BME280;49201;53.426;10.300;2023-03-22T07:41:49;100741.22;;;10.50;100.00
63111;BME280;49201;53.426;10.300;2023-03-22T07:44:23;100743.00;;;10.54;100.00
63111;BME280;49201;53.426;10.300;2023-03-22T07:47:24;100737.16;;;10.60;100.00
63111;BME280;49201;53.426;10.300;2023-03-22T07:50:26;100730.47;;;10.69;100.00
63111;BME280;49201;53.426;10.300;2023-03-22T07:52:54;100739.94;;;10.73;100.00
63111;BME280;49201;53.426;10.300;2023-03-22T07:55:20;100727.31;;;10.84;100.00
63111;BME280;49201;53.426;10.300;2023-03-22T07:57:45;100724.09;;;10.97;100.00
63111;BME280;49201;53.426;10.300;2023-03-22T08:00:11;100722.59;;;11.09;100.00
63111;BME280;49201;53.426;10.300;2023-03-22T08:03:01;100722.63;;;11.14;100.00
63111;BME280;49201;53.426;10.300;2023-03-22T08:05:51;100723.56;;;11.17;100.00
63111;BME280;49201;53.426;10.300;2023-03-22T08:08:17;100715.81;;;11.13;100.00
63111;BME280;49201;53.426;10.300;2023-03-22T08:10:48;100718.41;;;11.16;100.00
63111;BME280;49201;53.426;10.300;2023-03-22T08:13:13;100708.19;;;11.19;100.00
63111;BME280;49201;53.426;10.300;2023-03-22T08:15:39;100698.13;;;11.31;100.00
63111;BME280;49201;53.426;10.300;2023-03-22T08:18:04;100692.25;;;11.38;100.00
63111;BME280;49201;53.426;10.300;2023-03-22T08:20:37;100687.16;;;11.41;100.00
63111;BME280;49201;53.426;10.300;2023-03-22T08:23:07;100676.97;;;11.45;100.00
63111;BME280;49201;53.426;10.300;2023-03-22T08:26:11;100681.34;;;11.54;100.00
63111;BME280;49201;53.426;10.300;2023-03-22T08:28:37;100663.53;;;11.63;100.00
63111;BME280;49201;53.426;10.300;2023-03-22T08:31:15;100657.66;;;11.71;100.00
63111;BME280;49201;53.426;10.300;2023-03-22T08:33:43;100661.28;;;11.88;100.00
63111;BME280;49201;53.426;10.300;2023-03-22T08:36:11;100653.59;;;11.90;100.00
63111;BME280;49201;53.426;10.300;2023-03-22T08:38:44;100651.09;;;11.96;100.00
63111;BME280;49201;53.426;10.300;2023-03-22T08:41:12;100656.25;;;11.97;100.00
63111;BME280;49201;53.426;10.300;2023-03-22T08:43:38;100643.56;;;12.09;100.00
63111;BME280;49201;53.426;10.300;2023-03-22T08:46:04;100636.66;;;12.04;100.00
63111;BME280;49201;53.426;10.300;2023-03-22T08:48:29;100633.34;;;12.15;100.00
63111;BME280;49201;53.426;10.300;2023-03-22T08:51:17;100627.50;;;12.30;100.00
63111;BME280;49201;53.426;10.300;2023-03-22T08:53:55;100622.63;;;12.63;100.00
63111;BME280;49201;53.426;10.300;2023-03-22T08:57:03;100621.34;;;13.33;100.00
63111;BME280;49201;53.426;10.300;2023-03-22T08:59:55;100618.78;;;13.33;100.00
63111;BME280;49201;53.426;10.300;2023-03-22T09:02:34;100623.97;;;13.43;100.00
63111;BME280;49201;53.426;10.300;2023-03-22T09:04:59;100623.13;;;13.40;100.00
63111;BME280;49201;53.426;10.300;2023-03-22T09:07:26;100623.13;;;13.46;100.00
63111;BME280;49201;53.426;10.300;2023-03-22T09:10:10;100628.19;;;13.29;100.00
63111;BME280;49201;53.426;10.300;2023-03-22T09:12:39;100622.31;;;13.53;100.00
63111;BME280;49201;53.426;10.300;2023-03-22T09:15:05;100618.13;;;13.91;100.00
63111;BME280;49201;53.426;10.300;2023-03-22T09:17:32;100608.75;;;14.15;100.00
63111;BME280;49201;53.426;10.300;2023-03-22T09:19:58;100601.84;;;13.99;100.00
63111;BME280;49201;53.426;10.300;2023-03-22T09:22:23;100596.78;;;14.29;100.00
63111;BME280;49201;53.426;10.300;2023-03-22T09:24:49;100571.84;;;14.51;100.00
63111;BME280;49201;53.426;10.300;2023-03-22T09:27:14;100521.66;;;15.57;100.00
63111;BME280;49201;53.426;10.300;2023-03-22T09:29:40;100316.66;;;17.12;100.00
63111;BME280;49201;53.426;10.300;2023-03-22T09:32:11;100233.28;;;17.46;100.00
63111;BME280;49201;53.426;10.300;2023-03-22T09:34:38;100141.09;;;18.20;100.00
63111;BME280;49201;53.426;10.300;2023-03-22T09:37:04;100072.22;;;18.78;100.00
63111;BME280;49201;53.426;10.300;2023-03-22T09:39:52;99872.41;;;20.83;98.14
63111;BME280;49201;53.426;10.300;2023-03-22T09:42:32;99944.56;;;19.54;100.00
63111;BME280;49201;53.426;10.300;2023-03-22T09:45:04;99907.94;;;19.88;100.00
63111;BME280;49201;53.426;10.300;2023-03-22T09:47:38;100089.88;;;18.29;100.00
63111;BME280;49201;53.426;10.300;2023-03-22T09:50:15;100237.47;;;16.47;100.00
63111;BME280;49201;53.426;10.300;2023-03-22T09:52:43;100372.00;;;15.51;100.00
63111;BME280;49201;53.426;10.300;2023-03-22T09:55:37;100422.88;;;15.34;100.00
63111;BME280;49201;53.426;10.300;2023-03-22T10:00:48;100400.84;;;15.95;100.00
63111;BME280;49201;53.426;10.300;2023-03-22T10:03:34;100200.06;;;17.21;100.00
63111;BME280;49201;53.426;10.300;2023-03-22T10:06:18;100121.00;;;17.50;100.00
63111;BME280;49201;53.426;10.300;2023-03-22T10:12:09;100182.31;;;15.86;100.00
63111;BME280;49201;53.426;10.300;2023-03-22T10:14:39;100263.75;;;15.36;100.00
63111;BME280;49201;53.426;10.300;2023-03-22T10:17:11;100320.59;;;15.19;100.00
63111;BME280;49201;53.426;10.300;2023-03-22T10:20:06;100372.19;;;15.24;100.00
63111;BME280;49201;53.426;10.300;2023-03-22T10:22:37;100381.59;;;15.34;100.00
63111;BME280;49201;53.426;10.300;2023-03-22T10:25:06;100404.19;;;14.90;100.00
63111;BME280;49201;53.426;10.300;2023-03-22T10:27:33;100404.97;;;15.05;100.00
63111;BME280;49201;53.426;10.300;2023-03-22T10:32:50;100420.38;;;15.11;100.00
63111;BME280;49201;53.426;10.300;2023-03-22T10:35:17;100433.38;;;14.96;100.00
63111;BME280;49201;53.426;10.300;2023-03-22T10:37:44;100393.06;;;14.77;100.00
63111;BME280;49201;53.426;10.300;2023-03-22T10:40:26;100394.69;;;14.99;100.00
63111;BME280;49201;53.426;10.300;2023-03-22T10:42:55;100390.31;;;15.10;100.00
63111;BME280;49201;53.426;10.300;2023-03-22T10:45:25;100385.31;;;14.86;100.00
63111;BME280;49201;53.426;10.300;2023-03-22T10:47:56;100385.34;;;14.74;100.00
63111;BME280;49201;53.426;10.300;2023-03-22T10:50:35;100396.63;;;14.51;100.00
63111;BME280;49201;53.426;10.300;2023-03-22T10:55:38;100420.72;;;14.42;100.00
63111;BME280;49201;53.426;10.300;2023-03-22T10:58:11;100419.81;;;14.48;100.00
63111;BME280;49201;53.426;10.300;2023-03-22T11:03:35;100408.66;;;14.55;100.00
63111;BME280;49201;53.426;10.300;2023-03-22T11:06:13;100431.84;;;14.49;100.00
63111;BME280;49201;53.426;10.300;2023-03-22T11:08:43;100382.00;;;14.59;100.00
63111;BME280;49201;53.426;10.300;2023-03-22T11:11:31;100398.34;;;14.53;100.00
63111;BME280;49201;53.426;10.300;2023-03-22T11:14:13;100431.03;;;14.42;100.00
63111;BME280;49201;53.426;10.300;2023-03-22T11:16:49;100407.78;;;14.56;100.00
63111;BME280;49201;53.426;10.300;2023-03-22T11:19:24;100082.59;;;17.29;100.00
63111;BME280;49201;53.426;10.300;2023-03-22T11:21:56;99920.84;;;17.48;100.00
63111;BME280;49201;53.426;10.300;2023-03-22T11:24:25;99916.50;;;17.11;100.00
63111;BME280;49201;53.426;10.300;2023-03-22T11:27:03;100031.19;;;17.54;100.00
63111;BME280;49201;53.426;10.300;2023-03-22T11:29:39;99900.06;;;17.86;98.45
63111;BME280;49201;53.426;10.300;2023-03-22T11:32:19;99988.38;;;16.97;100.00
63111;BME280;49201;53.426;10.300;2023-03-22T11:34:46;100066.03;;;16.47;100.00
63111;BME280;49201;53.426;10.300;2023-03-22T11:37:15;100117.53;;;16.01;100.00
63111;BME280;49201;53.426;10.300;2023-03-22T11:39:45;100186.75;;;15.75;100.00
63111;BME280;49201;53.426;10.300;2023-03-22T11:42:18;100219.88;;;15.36;100.00
63111;BME280;49201;53.426;10.300;2023-03-22T11:44:45;100253.41;;;15.36;100.00
63111;BME280;49201;53.426;10.300;2023-03-22T11:47:12;100276.09;;;15.88;100.00
63111;BME280;49201;53.426;10.300;2023-03-22T11:49:49;100147.13;;;16.41;100.00
63111;BME280;49201;53.426;10.300;2023-03-22T11:52:23;100171.41;;;15.63;100.00
63111;BME280;49201;53.426;10.300;2023-03-22T11:54:50;100214.72;;;15.34;100.00
63111;BME280;49201;53.426;10.300;2023-03-22T11:57:20;100256.81;;;15.41;100.00
63111;BME280;49201;53.426;10.300;2023-03-22T11:59:56;100215.09;;;15.80;100.00
63111;BME280;49201;53.426;10.300;2023-03-22T12:02:26;100150.91;;;16.16;100.00
63111;BME280;49201;53.426;10.300;2023-03-22T12:05:03;100148.97;;;15.68;100.00
63111;BME280;49201;53.426;10.300;2023-03-22T12:07:31;100213.88;;;15.35;100.00
63111;BME280;49201;53.426;10.300;2023-03-22T12:12:52;100228.41;;;15.45;100.00
63111;BME280;49201;53.426;10.300;2023-03-22T12:15:37;100222.34;;;15.46;100.00
63111;BME280;49201;53.426;10.300;2023-03-22T12:18:11;100233.56;;;15.44;100.00
63111;BME280;49201;53.426;10.300;2023-03-22T12:20:58;100241.53;;;15.15;100.00
63111;BME280;49201;53.426;10.300;2023-03-22T12:23:29;100265.53;;;15.26;100.00
63111;BME280;49201;53.426;10.300;2023-03-22T12:25:57;100265.47;;;15.31;100.00
63111;BME280;49201;53.426;10.300;2023-03-22T12:28:30;100268.13;;;15.26;100.00
63111;BME280;49201;53.426;10.300;2023-03-22T12:30:58;100228.47;;;15.32;100.00
63111;BME280;49201;53.426;10.300;2023-03-22T12:33:48;100266.34;;;15.28;100.00
63111;BME280;49201;53.426;10.300;2023-03-22T12:36:16;100261.41;;;15.06;100.00
63111;BME280;49201;53.426;10.300;2023-03-22T12:38:53;100269.13;;;15.07;100.00
63111;BME280;49201;53.426;10.300;2023-03-22T12:41:44;100269.16;;;15.01;100.00
63111;BME280;49201;53.426;10.300;2023-03-22T12:44:28;100275.13;;;15.11;100.00
63111;BME280;49201;53.426;10.300;2023-03-22T12:46:59;100289.84;;;14.94;100.00
63111;BME280;49201;53.426;10.300;2023-03-22T12:51:58;100287.38;;;14.80;100.00
63111;BME280;49201;53.426;10.300;2023-03-22T12:54:26;100314.94;;;14.72;100.00
63111;BME280;49201;53.426;10.300;2023-03-22T12:56:52;100300.38;;;14.61;100.00
63111;BME280;49201;53.426;10.300;2023-03-22T12:59:22;100305.59;;;14.56;100.00
63111;BME280;49201;53.426;10.300;2023-03-22T13:09:43;100373.47;;;14.43;100.00
63111;BME280;49201;53.426;10.300;2023-03-22T13:32:49;100445.66;;;14.18;100.00
63111;BME280;49201;53.426;10.300;2023-03-22T13:35:25;100464.53;;;14.15;100.00
63111;BME280;49201;53.426;10.300;2023-03-22T13:37:53;100497.16;;;14.09;100.00
63111;BME280;49201;53.426;10.300;2023-03-22T13:40:27;100474.81;;;14.00;100.00
63111;BME280;49201;53.426;10.300;2023-03-22T13:43:08;100489.41;;;13.94;100.00
63111;BME280;49201;53.426;10.300;2023-03-22T13:45:34;100479.13;;;13.97;100.00
63111;BME280;49201;53.426;10.300;2023-03-22T13:48:11;100499.72;;;13.89;100.00
63111;BME280;49201;53.426;10.300;2023-03-22T13:50:51;100479.97;;;13.78;100.00
63111;BME280;49201;53.426;10.300;2023-03-22T13:53:26;100473.97;;;13.68;100.00
63111;BME280;49201;53.426;10.300;2023-03-22T13:56:02;100447.38;;;13.59;100.00
63111;BME280;49201;53.426;10.300;2023-03-22T14:00:55;100442.22;;;13.56;100.00
63111;BME280;49201;53.426;10.300;2023-03-22T14:03:34;100479.97;;;13.55;100.00
63111;BME280;49201;53.426;10.300;2023-03-22T14:06:21;100497.09;;;13.49;100.00
63111;BME280;49201;53.426;10.300;2023-03-22T14:08:51;100529.69;;;13.44;100.00
63111;BME280;49201;53.426;10.300;2023-03-22T14:11:25;100578.56;;;13.44;100.00
63111;BME280;49201;53.426;10.300;2023-03-22T14:13:58;100569.09;;;13.40;100.00
63111;BME280;49201;53.426;10.300;2023-03-22T14:18:56;100617.94;;;13.35;100.00
63111;BME280;49201;53.426;10.300;2023-03-22T14:21:42;100647.97;;;13.36;100.00
63111;BME280;49201;53.426;10.300;2023-03-22T14:24:14;100647.91;;;13.30;100.00
63111;BME280;49201;53.426;10.300;2023-03-22T14:26:43;100690.81;;;13.36;100.00
63111;BME280;49201;53.426;10.300;2023-03-22T14:31:58;100701.03;;;13.24;100.00
63111;BME280;49201;53.426;10.300;2023-03-22T14:34:27;100702.78;;;13.25;100.00
63111;BME280;49201;53.426;10.300;2023-03-22T14:36:57;100692.44;;;13.22;100.00
63111;BME280;49201;53.426;10.300;2023-03-22T14:39:38;100679.59;;;13.20;100.00
63111;BME280;49201;53.426;10.300;2023-03-22T14:42:15;100679.56;;;13.16;100.00